Time;durP1;ratioP1;P1;durP2;ratioP2;P2;SDS_P1;SDS_P2;PMS_P1;PMS_P2;Temp;Humidity;BMP_temperature;BMP_pressure;BME280_temperature;BME280_humidity;BME280_pressure;Samples;Min_cycle;Max_cycle;Signal;HPM_P1;HPM_P2
2021/09/28 00:01:39;;;;;;;0.50;0.47;;;;;;;18.22;100.00;101254.97;5010178;28;20049;-64
2021/09/28 00:04:05;;;;;;;1.95;0.75;;;;;;;18.15;100.00;101255.00;5016236;28;20076;-65
2021/09/28 00:06:30;;;;;;;2.65;0.80;;;;;;;18.14;100.00;101254.22;5012824;28;20112;-65
2021/09/28 00:08:56;;;;;;;2.30;0.55;;;;;;;18.15;100.00;101252.28;5012552;28;20522;-65
2021/09/28 00:11:21;;;;;;;2.85;0.70;;;;;;;18.09;100.00;101262.00;5015470;28;20034;-65
2021/09/28 00:13:47;;;;;;;2.45;0.70;;;;;;;18.13;100.00;101255.41;5023867;28;20034;-65
2021/09/28 00:16:12;;;;;;;1.88;0.70;;;;;;;18.09;100.00;101267.47;5009614;28;20053;-65
2021/09/28 00:18:38;;;;;;;3.05;0.90;;;;;;;18.00;100.00;101265.91;5011093;28;20041;-65
2021/09/28 00:21:03;;;;;;;0.98;0.70;;;;;;;17.97;100.00;101268.63;5012990;28;20148;-65
2021/09/28 00:23:29;;;;;;;1.50;0.80;;;;;;;17.97;100.00;101261.25;5028931;28;20037;-64
2021/09/28 00:25:54;;;;;;;2.40;0.90;;;;;;;17.91;100.00;101262.00;5012540;28;20069;-65
2021/09/28 00:28:20;;;;;;;0.90;0.90;;;;;;;17.84;100.00;101256.56;5012421;28;20025;-64
2021/09/28 00:30:45;;;;;;;6.03;1.00;;;;;;;17.83;100.00;101268.63;5010011;28;20030;-64
2021/09/28 00:33:12;;;;;;;2.03;0.85;;;;;;;17.83;100.00;101265.91;5011822;28;20037;-64
2021/09/28 00:35:38;;;;;;;1.65;1.08;;;;;;;17.80;100.00;101275.66;5005514;28;20152;-64
2021/09/28 00:38:04;;;;;;;1.80;1.20;;;;;;;17.76;100.00;101274.84;5011497;28;20124;-64
2021/09/28 00:40:30;;;;;;;1.55;0.95;;;;;;;17.76;100.00;101271.34;5012654;28;20026;-64
2021/09/28 00:42:57;;;;;;;2.65;1.10;;;;;;;17.73;100.00;101272.88;5013614;28;20057;-64
2021/09/28 00:45:23;;;;;;;2.05;1.13;;;;;;;17.70;100.00;101265.50;5010634;28;20055;-65
2021/09/28 00:47:48;;;;;;;1.95;1.10;;;;;;;17.66;100.00;101263.94;5012473;28;20529;-64
2021/09/28 00:50:14;;;;;;;1.15;0.82;;;;;;;17.64;100.00;101269.78;5016516;28;20025;-64
2021/09/28 00:52:40;;;;;;;2.00;1.00;;;;;;;17.57;100.00;101280.66;5013666;28;20506;-64
2021/09/28 00:55:06;;;;;;;4.25;1.10;;;;;;;17.54;100.00;101275.97;5012476;28;20044;-64
2021/09/28 00:57:32;;;;;;;6.25;1.10;;;;;;;17.49;100.00;101290.00;5019230;28;20521;-64
2021/09/28 00:59:59;;;;;;;4.03;1.10;;;;;;;17.45;100.00;101291.09;5019564;28;20034;-64
2021/09/28 01:02:24;;;;;;;2.28;1.13;;;;;;;17.46;100.00;101292.69;5015150;28;20175;-64
2021/09/28 01:04:50;;;;;;;2.83;1.45;;;;;;;17.47;100.00;101302.41;5011851;28;20502;-64
2021/09/28 01:07:16;;;;;;;4.45;1.27;;;;;;;17.45;100.00;101305.50;5012395;28;20069;-64
2021/09/28 01:09:41;;;;;;;5.13;1.30;;;;;;;17.41;100.00;101304.72;5008766;28;20045;-64
2021/09/28 01:12:09;;;;;;;2.60;1.25;;;;;;;17.41;100.00;101307.44;5010315;28;20038;-65
2021/09/28 01:14:36;;;;;;;3.47;1.55;;;;;;;17.38;100.00;101310.16;5011546;28;20514;-64
2021/09/28 01:17:02;;;;;;;2.28;1.35;;;;;;;17.30;100.00;101312.09;5015008;28;20228;-64
2021/09/28 01:19:27;;;;;;;3.25;1.05;;;;;;;17.28;100.00;101308.97;5029391;28;20116;-65
2021/09/28 01:21:53;;;;;;;3.80;1.10;;;;;;;17.32;100.00;101312.47;5008956;28;20032;-65
2021/09/28 01:24:18;;;;;;;3.35;1.10;;;;;;;17.31;100.00;101316.34;5029357;28;20156;-64
2021/09/28 01:26:44;;;;;;;3.38;1.20;;;;;;;17.28;100.00;101321.78;5012032;28;20378;-64
2021/09/28 01:29:09;;;;;;;2.05;1.15;;;;;;;17.27;100.00;101312.03;5012508;28;20500;-64
2021/09/28 01:31:38;;;;;;;3.40;1.30;;;;;;;17.24;100.00;101321.00;5011864;28;20034;-64
2021/09/28 01:34:04;;;;;;;5.47;1.80;;;;;;;17.24;100.00;101321.00;5019693;28;20045;-64
2021/09/28 01:36:29;;;;;;;2.25;1.25;;;;;;;17.17;100.00;101322.53;5010828;28;20026;-65
2021/09/28 01:38:55;;;;;;;3.42;1.35;;;;;;;17.15;100.00;101333.00;5011800;28;20379;-65
2021/09/28 01:41:20;;;;;;;3.72;1.00;;;;;;;17.14;100.00;101323.28;5009469;28;20146;-65
2021/09/28 01:43:46;;;;;;;1.60;1.10;;;;;;;17.08;100.00;101330.28;5010780;28;20040;-65
2021/09/28 01:46:12;;;;;;;1.83;1.48;;;;;;;17.09;100.00;101331.81;5011200;28;20537;-64
2021/09/28 01:48:48;;;;;;;2.60;1.30;;;;;;;17.08;100.00;101329.47;5010277;28;20065;-64
2021/09/28 01:51:14;;;;;;;3.38;1.20;;;;;;;17.04;100.00;101332.19;5005296;28;20397;-64
2021/09/28 01:53:40;;;;;;;3.40;1.25;;;;;;;17.03;100.00;101329.84;5009658;28;20042;-64
2021/09/28 01:56:05;;;;;;;3.00;1.65;;;;;;;17.02;100.00;101334.50;5013504;28;20042;-64
2021/09/28 01:58:35;;;;;;;4.57;1.40;;;;;;;17.00;100.00;101341.50;5009111;28;20109;-64
2021/09/28 02:01:01;;;;;;;6.07;1.30;;;;;;;16.93;100.00;101341.47;5011161;28;20026;-64
2021/09/28 02:03:26;;;;;;;1.83;1.40;;;;;;;16.90;100.00;101339.47;5011177;28;20041;-64
2021/09/28 02:05:53;;;;;;;2.15;1.23;;;;;;;16.87;100.00;101338.31;5010461;28;20052;-64
2021/09/28 02:08:18;;;;;;;5.28;1.63;;;;;;;16.90;100.00;101339.47;5012147;28;20040;-64
2021/09/28 02:10:44;;;;;;;6.80;2.45;;;;;;;16.88;100.00;101339.88;5008452;28;20014;-64
2021/09/28 02:13:09;;;;;;;4.00;2.13;;;;;;;16.86;100.00;101331.31;5026297;28;20120;-65
2021/09/28 02:15:35;;;;;;;4.65;1.73;;;;;;;16.86;100.00;101342.19;5007408;28;20040;-64
2021/09/28 02:18:01;;;;;;;5.53;2.00;;;;;;;16.82;100.00;101335.19;5007536;28;20108;-64
2021/09/28 02:20:26;;;;;;;4.07;2.25;;;;;;;16.83;100.00;101339.44;5010992;28;20045;-64
2021/09/28 02:22:52;;;;;;;4.47;2.15;;;;;;;16.73;100.00;101345.59;5009930;28;20042;-64
2021/09/28 02:25:19;;;;;;;10.30;2.15;;;;;;;16.75;100.00;101343.28;5010479;28;20045;-65
2021/09/28 02:27:45;;;;;;;3.33;1.95;;;;;;;16.73;100.00;101345.59;5009578;28;20453;-64
2021/09/28 02:30:11;;;;;;;8.48;1.98;;;;;;;16.71;100.00;101347.91;5017901;28;20072;-64
2021/09/28 02:32:37;;;;;;;4.65;2.08;;;;;;;16.70;100.00;101352.59;5008666;28;20042;-64
2021/09/28 02:35:04;;;;;;;3.08;2.03;;;;;;;16.70;100.00;101359.97;5006432;28;20036;-64
2021/09/28 02:37:29;;;;;;;5.30;2.47;;;;;;;16.70;100.00;101358.03;5008837;28;20080;-65
2021/09/28 02:39:55;;;;;;;4.95;2.22;;;;;;;16.63;100.00;101362.63;5010736;28;20045;-65
2021/09/28 02:42:21;;;;;;;4.45;2.30;;;;;;;16.58;100.00;101373.88;5008699;28;20049;-65
2021/09/28 02:44:48;;;;;;;7.55;2.72;;;;;;;16.60;100.00;101371.56;5014107;28;20142;-65
2021/09/28 02:47:14;;;;;;;4.55;1.85;;;;;;;16.56;100.00;101378.91;5011103;28;20068;-65
2021/09/28 02:49:40;;;;;;;8.45;2.22;;;;;;;16.36;100.00;101366.66;5012287;28;20041;-65
2021/09/28 02:52:05;;;;;;;4.10;2.47;;;;;;;16.26;100.00;101370.84;5015750;28;20033;-64
2021/09/28 02:54:31;;;;;;;4.55;2.30;;;;;;;16.20;100.00;101378.56;5009807;28;20034;-65
2021/09/28 02:56:56;;;;;;;8.23;2.75;;;;;;;16.14;100.00;101373.88;5013149;28;20083;-65
2021/09/28 02:59:22;;;;;;;4.40;2.70;;;;;;;16.10;100.00;101367.63;5007248;28;20042;-65
2021/09/28 03:01:47;;;;;;;4.45;2.38;;;;;;;16.08;100.00;101373.44;5013743;28;20032;-65
2021/09/28 03:04:14;;;;;;;8.65;3.10;;;;;;;16.03;100.00;101379.19;5021502;28;20100;-64
2021/09/28 03:06:40;;;;;;;5.55;2.72;;;;;;;15.96;100.00;101373.69;5006680;28;20491;-65
2021/09/28 03:09:05;;;;;;;4.15;2.45;;;;;;;15.96;100.00;101370.97;5009825;28;20060;-65
2021/09/28 03:11:30;;;;;;;6.22;2.58;;;;;;;15.94;100.00;101375.22;5012532;28;20026;-65
2021/09/28 03:13:56;;;;;;;9.02;2.60;;;;;;;15.92;100.00;101378.31;5009153;28;20566;-65
2021/09/28 03:16:23;;;;;;;4.47;2.17;;;;;;;15.88;100.00;101379.41;5010394;28;20048;-66
2021/09/28 03:18:49;;;;;;;6.97;2.40;;;;;;;15.86;100.00;101377.06;5007211;28;20185;-65
2021/09/28 03:21:15;;;;;;;5.30;2.72;;;;;;;15.84;100.00;101379.38;5002437;28;20034;-65
2021/09/28 03:23:41;;;;;;;7.13;2.78;;;;;;;15.88;100.00;101379.41;5000268;28;20766;-65
2021/09/28 03:26:06;;;;;;;7.05;2.35;;;;;;;15.80;100.00;101375.84;5005912;28;20036;-65
2021/09/28 03:28:32;;;;;;;4.28;2.38;;;;;;;15.76;100.00;101383.16;5009168;28;20029;-65
2021/09/28 03:30:59;;;;;;;4.00;2.22;;;;;;;15.80;100.00;101381.28;5009641;28;20116;-65
2021/09/28 03:33:26;;;;;;;5.72;2.30;;;;;;;15.79;100.00;101387.09;5011163;28;20133;-65
2021/09/28 03:35:52;;;;;;;5.35;2.58;;;;;;;15.79;100.00;101387.88;5009616;28;20030;-65
2021/09/28 03:38:17;;;;;;;5.18;2.10;;;;;;;15.72;100.00;101395.94;5024927;22;20052;-64
2021/09/28 03:40:43;;;;;;;2.92;2.17;;;;;;;15.70;100.00;101392.81;5022290;28;20489;-63
2021/09/28 03:43:10;;;;;;;3.22;2.05;;;;;;;15.71;100.00;101401.75;5016732;28;20085;-64
2021/09/28 03:45:36;;;;;;;9.05;2.45;;;;;;;15.63;100.00;101403.59;5016854;28;20034;-63
2021/09/28 03:48:02;;;;;;;3.40;1.80;;;;;;;15.67;100.00;101414.50;5017049;28;20043;-64
2021/09/28 03:50:28;;;;;;;4.35;2.10;;;;;;;15.64;100.00;101409.81;5031884;28;20381;-65
2021/09/28 03:52:54;;;;;;;4.45;2.00;;;;;;;15.66;100.00;101405.56;5029831;28;20041;-64
2021/09/28 03:55:20;;;;;;;4.18;2.00;;;;;;;15.73;100.00;101408.38;5028744;28;20080;-64
2021/09/28 03:57:49;;;;;;;5.68;1.95;;;;;;;15.74;100.00;101414.56;5031909;28;20071;-65
2021/09/28 04:00:16;;;;;;;3.90;2.30;;;;;;;15.76;100.00;101413.06;5031005;28;20021;-62
2021/09/28 04:02:42;;;;;;;3.33;2.00;;;;;;;15.75;100.00;101413.44;5025511;28;20041;-62
2021/09/28 04:05:08;;;;;;;3.72;1.95;;;;;;;15.70;100.00;101424.63;5025338;28;20037;-61
2021/09/28 04:07:35;;;;;;;4.13;2.30;;;;;;;15.66;100.00;101419.13;5020047;28;20026;-62
2021/09/28 04:10:02;;;;;;;3.22;1.83;;;;;;;15.59;100.00;101429.91;5020292;28;20040;-62
2021/09/28 04:12:28;;;;;;;3.65;2.00;;;;;;;15.56;100.00;101427.97;5031593;28;20037;-60
2021/09/28 04:14:55;;;;;;;4.32;2.03;;;;;;;15.57;100.00;101434.94;5027789;28;20033;-61
2021/09/28 04:17:20;;;;;;;5.15;2.15;;;;;;;15.48;100.00;101431.72;5021124;28;20104;-62
2021/09/28 04:19:45;;;;;;;3.25;1.67;;;;;;;15.41;100.00;101434.28;5031650;28;20120;-62
2021/09/28 04:22:11;;;;;;;2.88;1.80;;;;;;;15.38;100.00;101435.03;5028689;28;20520;-60
2021/09/28 04:24:36;;;;;;;5.35;1.77;;;;;;;15.34;100.00;101447.78;5032490;28;20045;-61
2021/09/28 04:27:02;;;;;;;3.83;1.95;;;;;;;15.33;100.00;101440.78;5018587;28;20144;-62
2021/09/28 04:29:28;;;;;;;3.17;2.00;;;;;;;15.29;100.00;101450.84;5013929;28;20508;-62
2021/09/28 04:31:53;;;;;;;4.45;2.08;;;;;;;15.23;100.00;101444.16;5021207;28;20066;-61
2021/09/28 04:34:19;;;;;;;3.28;1.73;;;;;;;15.29;100.00;101453.53;5018302;28;20022;-61
2021/09/28 04:36:45;;;;;;;3.15;1.92;;;;;;;15.34;100.00;101454.00;5030477;28;20025;-61
2021/09/28 04:39:12;;;;;;;3.25;1.75;;;;;;;15.32;100.00;101458.22;5027308;28;20035;-62
2021/09/28 04:41:43;;;;;;;3.95;2.10;;;;;;;15.44;100.00;101466.19;5021947;28;20041;-62
2021/09/28 04:44:12;;;;;;;3.90;1.90;;;;;;;15.45;100.00;101467.75;5017853;28;20033;-63
2021/09/28 04:46:37;;;;;;;4.15;2.10;;;;;;;15.43;100.00;101470.03;5030759;28;20045;-62
2021/09/28 04:49:03;;;;;;;3.30;1.85;;;;;;;15.33;100.00;101478.78;5022991;28;20050;-63
2021/09/28 04:51:29;;;;;;;4.43;2.00;;;;;;;15.34;100.00;101478.44;5020269;28;20482;-62
2021/09/28 04:53:54;;;;;;;2.80;2.00;;;;;;;15.36;100.00;101469.91;5023134;28;20041;-61
2021/09/28 04:56:20;;;;;;;3.97;1.65;;;;;;;15.42;100.00;101483.97;5028387;28;20052;-62
2021/09/28 04:58:45;;;;;;;4.25;2.10;;;;;;;15.41;100.00;101494.03;5016822;28;20124;-62
2021/09/28 05:01:11;;;;;;;4.55;1.75;;;;;;;15.40;100.00;101487.03;5023710;28;20040;-62
2021/09/28 05:03:36;;;;;;;3.35;1.85;;;;;;;15.37;100.00;101490.47;5019099;28;20395;-62
2021/09/28 05:06:02;;;;;;;3.67;1.77;;;;;;;15.37;100.00;101493.97;5018563;28;20057;-61
2021/09/28 05:08:27;;;;;;;2.13;1.42;;;;;;;15.43;100.00;101499.13;5003160;28;20049;-62
2021/09/28 05:10:53;;;;;;;3.15;1.35;;;;;;;15.41;100.00;101509.53;5017770;28;20041;-62
2021/09/28 05:13:18;;;;;;;2.70;1.52;;;;;;;15.39;100.00;101504.47;5020622;28;20073;-62
2021/09/28 05:15:45;;;;;;;2.55;1.52;;;;;;;15.34;100.00;101508.28;5022508;28;20048;-61
2021/09/28 05:18:10;;;;;;;1.95;1.25;;;;;;;15.42;100.00;101506.50;5016655;28;20052;-61
2021/09/28 05:20:36;;;;;;;4.18;1.40;;;;;;;15.41;100.00;101515.75;5008954;28;20064;-62
2021/09/28 05:23:02;;;;;;;2.97;1.48;;;;;;;15.45;100.00;101513.13;5012263;28;20328;-62
2021/09/28 05:25:28;;;;;;;5.25;1.73;;;;;;;15.45;100.00;101515.84;5011332;28;20045;-61
2021/09/28 05:27:54;;;;;;;3.63;1.58;;;;;;;15.49;100.00;101517.44;5014330;28;20083;-62
2021/09/28 05:30:20;;;;;;;5.65;1.52;;;;;;;15.48;100.00;101521.31;5021441;28;20052;-62
2021/09/28 05:32:45;;;;;;;3.42;1.48;;;;;;;15.53;100.00;101520.19;5022044;28;20064;-62
2021/09/28 05:35:11;;;;;;;2.60;1.30;;;;;;;15.45;100.00;101532.13;5016849;28;20040;-61
2021/09/28 05:37:37;;;;;;;5.53;2.00;;;;;;;15.44;100.00;101522.41;5018967;28;20103;-62
2021/09/28 05:40:05;;;;;;;4.68;1.60;;;;;;;15.35;100.00;101526.13;5010415;28;20048;-61
2021/09/28 05:42:30;;;;;;;4.90;1.80;;;;;;;15.32;100.00;101536.94;5021787;28;20083;-62
2021/09/28 05:44:56;;;;;;;3.60;1.60;;;;;;;15.32;100.00;101536.94;5013103;28;20026;-62
2021/09/28 05:47:21;;;;;;;2.67;1.67;;;;;;;15.24;100.00;101546.91;5013370;28;20401;-62
2021/09/28 05:49:47;;;;;;;2.55;1.50;;;;;;;15.16;100.00;101544.44;5010310;28;20064;-62
2021/09/28 05:52:14;;;;;;;5.10;1.63;;;;;;;15.21;100.00;101544.13;5011769;28;20034;-63
2021/09/28 05:54:49;;;;;;;5.95;1.63;;;;;;;15.06;100.00;101545.06;5015239;28;20117;-62
2021/09/28 05:57:17;;;;;;;3.35;1.45;;;;;;;15.13;100.00;101553.31;5024871;28;20048;-62
2021/09/28 05:59:43;;;;;;;2.97;1.17;;;;;;;15.14;100.00;101558.38;5016266;28;20033;-62
2021/09/28 06:02:09;;;;;;;4.15;1.35;;;;;;;15.17;100.00;101554.94;5020761;28;20389;-62
2021/09/28 06:04:35;;;;;;;3.58;2.10;;;;;;;15.24;100.00;101559.69;5025397;28;20029;-62
2021/09/28 06:07:02;;;;;;;5.93;1.92;;;;;;;15.24;100.00;101556.97;5019596;28;20028;-62
2021/09/28 06:09:28;;;;;;;5.65;2.22;;;;;;;15.26;100.00;101562.81;5023167;28;20091;-61
2021/09/28 06:11:53;;;;;;;4.78;1.95;;;;;;;15.30;100.00;101566.38;5024937;28;20033;-62
2021/09/28 06:14:19;;;;;;;3.90;1.60;;;;;;;15.36;100.00;101573.84;5025586;28;20062;-62
2021/09/28 06:16:44;;;;;;;3.83;1.85;;;;;;;15.44;100.00;101568.56;5025163;28;20048;-61
2021/09/28 06:19:10;;;;;;;6.53;1.70;;;;;;;15.46;100.00;101572.47;5025517;28;20065;-62
2021/09/28 06:21:36;;;;;;;2.60;1.67;;;;;;;15.53;100.00;101569.88;5020417;28;20014;-62
2021/09/28 06:24:01;;;;;;;7.07;1.40;;;;;;;15.55;100.00;101573.00;5024473;28;20025;-61
2021/09/28 06:26:27;;;;;;;4.18;1.80;;;;;;;15.58;100.00;101574.22;5015726;28;20144;-61
2021/09/28 06:28:52;;;;;;;5.05;1.88;;;;;;;15.64;100.00;101584.38;5018348;28;20509;-62
2021/09/28 06:31:18;;;;;;;4.60;2.00;;;;;;;15.70;100.00;101580.19;5020127;28;20474;-62
2021/09/28 06:33:43;;;;;;;2.15;1.50;;;;;;;15.72;100.00;101588.75;5023771;28;20072;-62
2021/09/28 06:36:09;;;;;;;2.33;1.45;;;;;;;15.76;100.00;101586.09;5023802;28;20533;-62
2021/09/28 06:38:35;;;;;;;2.20;1.58;;;;;;;15.79;100.00;101597.03;5027278;28;20025;-61
2021/09/28 06:41:00;;;;;;;2.20;1.63;;;;;;;15.87;100.00;101606.81;5017772;28;20414;-62
2021/09/28 06:43:26;;;;;;;6.75;1.70;;;;;;;15.93;100.00;101597.22;5013057;28;20033;-62
2021/09/28 06:45:52;;;;;;;6.05;1.80;;;;;;;15.96;100.00;101604.66;5013136;28;20022;-62
2021/09/28 06:48:18;;;;;;;3.20;1.75;;;;;;;16.06;100.00;101601.28;5026262;28;20501;-62
2021/09/28 06:50:45;;;;;;;3.03;1.83;;;;;;;16.16;100.00;101600.63;5022033;28;20041;-62
2021/09/28 06:53:11;;;;;;;3.10;1.60;;;;;;;16.22;100.00;101609.25;5022110;28;20030;-62
2021/09/28 06:55:37;;;;;;;7.00;2.78;;;;;;;16.26;100.00;101608.13;5007511;28;20037;-62
2021/09/28 06:58:06;;;;;;;2.30;1.40;;;;;;;16.34;100.00;101611.72;5002974;28;20482;-62
2021/09/28 07:00:34;;;;;;;3.65;1.92;;;;;;;16.37;100.00;101611.00;5019757;28;20025;-62
2021/09/28 07:03:00;;;;;;;3.17;1.55;;;;;;;16.45;100.00;101607.22;5017202;28;20034;-61
2021/09/28 07:05:26;;;;;;;5.40;1.42;;;;;;;16.46;100.00;101611.50;5010104;28;20072;-61
2021/09/28 07:07:51;;;;;;;4.40;1.27;;;;;;;16.43;100.00;101611.47;5021757;28;20495;-62
2021/09/28 07:10:17;;;;;;;2.25;0.93;;;;;;;16.44;100.00;101621.16;5018665;28;20037;-62
2021/09/28 07:12:42;;;;;;;3.53;1.10;;;;;;;16.42;100.00;101610.66;5026806;28;20046;-61
2021/09/28 07:15:11;;;;;;;5.38;1.30;;;;;;;16.44;100.00;101621.16;5025512;28;20056;-62
2021/09/28 07:17:36;;;;;;;1.73;1.27;;;;;;;16.43;100.00;101614.97;5026361;28;20111;-61
2021/09/28 07:20:04;;;;;;;5.35;1.15;;;;;;;16.52;100.00;101618.19;5028241;28;20057;-62
2021/09/28 07:22:31;;;;;;;2.72;1.35;;;;;;;16.58;100.00;101622.16;5027063;28;20029;-62
2021/09/28 07:24:57;;;;;;;7.00;1.60;;;;;;;16.70;100.00;101623.84;5027657;28;20030;-62
2021/09/28 07:27:22;;;;;;;1.77;1.02;;;;;;;16.71;100.00;101628.91;5025773;28;20561;-62
2021/09/28 07:29:48;;;;;;;3.95;1.40;;;;;;;16.66;100.00;101623.81;5022389;28;20128;-62
2021/09/28 07:32:15;;;;;;;5.35;1.20;;;;;;;16.71;100.00;101630.84;5022261;28;20040;-62
2021/09/28 07:34:41;;;;;;;3.97;1.25;;;;;;;16.80;100.00;101640.28;5025762;28;20037;-62
2021/09/28 07:37:07;;;;;;;2.33;1.05;;;;;;;16.90;99.93;101630.66;5027050;28;20477;-61
2021/09/28 07:39:32;;;;;;;2.67;1.15;;;;;;;17.06;99.58;101636.66;5024272;28;20037;-62
2021/09/28 07:41:58;;;;;;;2.35;1.00;;;;;;;17.21;99.41;101629.44;5024721;28;20026;-61
2021/09/28 07:44:24;;;;;;;1.92;1.13;;;;;;;17.36;98.45;101634.63;5016560;28;20041;-62
2021/09/28 07:46:53;;;;;;;2.85;1.30;;;;;;;17.45;99.16;101631.56;5019315;28;20095;-62
2021/09/28 07:49:19;;;;;;;5.53;1.30;;;;;;;17.58;98.61;101641.03;5017777;28;20033;-62
2021/09/28 07:51:45;;;;;;;3.20;1.20;;;;;;;17.76;97.19;101645.47;5016259;28;20038;-62
2021/09/28 07:54:10;;;;;;;3.03;1.38;;;;;;;17.81;97.45;101644.31;5015716;28;20030;-61
2021/09/28 07:56:36;;;;;;;2.10;1.30;;;;;;;17.95;96.21;101641.69;5015934;28;20099;-62
2021/09/28 07:59:07;;;;;;;4.32;1.17;;;;;;;17.88;95.06;101647.91;5023220;28;20029;-62
2021/09/28 08:01:33;;;;;;;3.40;1.05;;;;;;;18.03;95.02;101637.84;5027575;28;20101;-62
2021/09/28 08:03:59;;;;;;;2.85;1.08;;;;;;;18.15;93.71;101640.25;5029059;28;20131;-63
2021/09/28 08:06:25;;;;;;;2.05;1.10;;;;;;;18.35;94.11;101643.47;5021163;28;20036;-62
2021/09/28 08:08:51;;;;;;;1.92;1.10;;;;;;;18.40;93.20;101640.38;5020120;28;20025;-62
2021/09/28 08:11:16;;;;;;;1.58;1.10;;;;;;;18.43;93.63;101648.59;5018097;28;20116;-63
2021/09/28 08:13:42;;;;;;;1.60;0.82;;;;;;;18.64;92.20;101642.47;5016852;28;20101;-61
2021/09/28 08:16:07;;;;;;;2.08;1.10;;;;;;;18.83;91.78;101636.66;5017408;28;20025;-62
2021/09/28 08:18:33;;;;;;;1.77;0.80;;;;;;;18.98;91.33;101640.97;5018068;28;20056;-63
2021/09/28 08:20:58;;;;;;;3.00;0.85;;;;;;;19.15;90.08;101642.94;5020665;28;20034;-62
2021/09/28 08:23:24;;;;;;;1.17;0.85;;;;;;;19.11;89.57;101644.91;5021306;28;20053;-63
2021/09/28 08:31:02;;;;;;;3.22;0.82;;;;;;;19.32;88.06;101644.94;5019521;28;20029;-63
2021/09/28 08:33:29;;;;;;;4.47;0.75;;;;;;;19.41;87.60;101648.09;5019881;28;20042;-63
2021/09/28 08:35:55;;;;;;;0.98;0.75;;;;;;;19.53;87.04;101650.41;5010277;28;20045;-62
2021/09/28 08:38:20;;;;;;;1.25;0.60;;;;;;;19.76;86.31;101655.50;5013497;28;20029;-63
2021/09/28 08:40:46;;;;;;;1.05;0.70;;;;;;;19.89;86.18;101650.38;5020587;28;20037;-62
2021/09/28 08:43:11;;;;;;;1.38;0.68;;;;;;;20.08;86.13;101652.69;5012682;28;20034;-63
2021/09/28 08:45:37;;;;;;;2.53;0.70;;;;;;;20.23;84.59;101659.69;5019645;28;20109;-62
2021/09/28 08:48:03;;;;;;;1.10;0.57;;;;;;;20.50;83.46;101660.78;5012250;28;20117;-62
2021/09/28 08:50:28;;;;;;;2.95;0.50;;;;;;;20.53;83.09;101663.53;5016126;28;20037;-62
2021/09/28 08:52:54;;;;;;;0.85;0.50;;;;;;;20.68;81.78;101665.00;5008825;28;20470;-62
2021/09/28 08:55:23;;;;;;;0.88;0.57;;;;;;;20.89;79.64;101663.34;5019065;28;20094;-63
2021/09/28 08:57:50;;;;;;;1.60;0.65;;;;;;;20.92;78.72;101660.59;5026937;28;20249;-63
2021/09/28 09:00:16;;;;;;;0.77;0.47;;;;;;;20.90;79.59;101659.44;5019747;28;20037;-62
2021/09/28 09:02:43;;;;;;;1.25;0.50;;;;;;;21.04;79.83;101662.88;5019616;28;20041;-63
2021/09/28 09:05:14;;;;;;;2.55;0.52;;;;;;;21.28;76.81;101661.94;5025738;28;20041;-63
2021/09/28 09:07:41;;;;;;;1.98;0.43;;;;;;;21.43;75.87;101668.88;5018812;28;20041;-63
2021/09/28 09:10:09;;;;;;;2.38;0.52;;;;;;;21.36;75.91;101666.19;5020127;28;20064;-63
2021/09/28 09:12:40;;;;;;;0.95;0.40;;;;;;;21.53;75.92;101670.75;5025252;28;20033;-63
2021/09/28 09:15:27;;;;;;;1.15;0.43;;;;;;;21.86;74.02;101672.06;5027812;28;20054;-63
2021/09/28 09:17:57;;;;;;;1.17;0.40;;;;;;;22.28;72.71;101663.38;5025840;28;20041;-62
2021/09/28 09:20:28;;;;;;;0.82;0.30;;;;;;;22.54;70.13;101666.59;5018888;28;20087;-63
2021/09/28 09:22:55;;;;;;;1.05;0.50;;;;;;;22.99;68.71;101668.78;5015657;28;20034;-63
2021/09/28 09:25:24;;;;;;;0.77;0.45;;;;;;;23.19;67.92;101660.59;5019443;28;20035;-63
2021/09/28 09:27:51;;;;;;;1.58;0.40;;;;;;;23.30;68.37;101669.50;5014243;28;20125;-63
2021/09/28 09:30:20;;;;;;;0.75;0.45;;;;;;;23.28;67.58;101660.88;5012104;28;20095;-63
2021/09/28 09:32:52;;;;;;;0.52;0.38;;;;;;;23.14;65.58;101670.13;5009258;28;20025;-63
2021/09/28 09:35:32;;;;;;;0.88;0.40;;;;;;;22.96;67.39;101668.81;5014549;28;20041;-63
2021/09/28 09:38:12;;;;;;;0.35;0.30;;;;;;;22.89;66.30;101677.94;5023942;28;20041;-63
2021/09/28 09:40:48;;;;;;;1.15;0.55;;;;;;;22.63;67.13;101667.69;5086159;22;20500;-66
2021/09/28 09:43:16;;;;;;;0.25;0.20;;;;;;;22.62;68.46;101671.63;5009141;28;20949;-66
2021/09/28 09:45:42;;;;;;;1.27;0.40;;;;;;;22.62;66.06;101666.16;5004705;28;20088;-67
2021/09/28 09:48:24;;;;;;;2.55;0.40;;;;;;;22.56;68.36;101662.25;5006271;28;20046;-66
2021/09/28 09:51:02;;;;;;;0.55;0.50;;;;;;;22.58;67.94;101659.91;5005915;28;20131;-67
2021/09/28 09:53:27;;;;;;;0.17;0.10;;;;;;;22.52;69.23;101660.75;5008517;28;20378;-67
2021/09/28 09:55:53;;;;;;;1.33;0.20;;;;;;;22.49;69.00;101665.09;5004032;28;20026;-66
2021/09/28 09:58:20;;;;;;;0.90;0.20;;;;;;;22.78;68.76;101665.53;4989345;28;20069;-66
2021/09/28 10:00:46;;;;;;;1.25;0.90;;;;;;;22.79;67.24;101673.38;5003265;28;20037;-67
2021/09/28 10:03:11;;;;;;;1.35;0.30;;;;;;;22.78;66.73;101668.28;5005640;28;20038;-67
2021/09/28 10:05:37;;;;;;;0.60;0.30;;;;;;;22.77;66.46;101664.75;4979219;28;20045;-66
2021/09/28 10:08:07;;;;;;;1.55;0.60;;;;;;;22.83;66.64;101665.84;4999821;28;20037;-67
2021/09/28 10:10:33;;;;;;;1.05;0.30;;;;;;;22.78;64.18;101660.06;5001466;28;20544;-66
2021/09/28 10:12:59;;;;;;;1.60;0.52;;;;;;;22.77;66.10;101659.25;5005179;28;20037;-67
2021/09/28 10:15:24;;;;;;;1.50;0.15;;;;;;;22.62;63.14;101657.13;5007773;28;20414;-67
2021/09/28 10:17:50;;;;;;;0.32;0.32;;;;;;;22.40;63.09;101653.81;5002847;28;21346;-67
2021/09/28 10:20:22;;;;;;;0.55;0.30;;;;;;;22.10;64.00;101664.78;5006581;28;20450;-67
2021/09/28 10:22:57;;;;;;;0.30;0.20;;;;;;;21.99;63.23;101656.63;5007444;28;20029;-67
2021/09/28 10:25:35;;;;;;;1.75;0.30;;;;;;;21.82;64.96;101660.34;5007655;28;20026;-66
2021/09/28 10:28:04;;;;;;;2.05;0.30;;;;;;;21.63;66.81;101658.13;4990096;28;20034;-66
2021/09/28 10:30:35;;;;;;;0.55;0.30;;;;;;;21.60;64.88;101652.69;5007147;28;20057;-66
2021/09/28 10:33:24;;;;;;;0.25;0.20;;;;;;;21.72;66.13;101649.44;5004701;28;20051;-66
2021/09/28 10:36:11;;;;;;;1.05;0.20;;;;;;;21.96;65.90;101649.22;4999679;28;20081;-66
2021/09/28 10:38:53;;;;;;;0.45;0.22;;;;;;;21.98;65.48;101654.31;5000788;28;20073;-67
2021/09/28 10:41:42;;;;;;;0.65;0.30;;;;;;;21.92;64.77;101645.75;5008813;28;20053;-67
2021/09/28 10:44:25;;;;;;;0.95;0.20;;;;;;;21.90;63.01;101652.81;5009686;28;20057;-67
2021/09/28 10:46:54;;;;;;;4.72;1.38;;;;;;;21.67;65.76;101650.66;4982714;28;20046;-67
2021/09/28 10:49:27;;;;;;;0.40;0.20;;;;;;;21.59;66.68;101651.91;4998387;28;20796;-67
2021/09/28 10:52:20;;;;;;;1.58;0.20;;;;;;;21.48;67.24;101645.75;5007856;28;20506;-67
2021/09/28 10:55:04;;;;;;;1.90;0.38;;;;;;;21.38;67.95;101657.56;5002106;28;20606;-66
2021/09/28 10:57:54;;;;;;;1.45;0.40;;;;;;;21.38;67.43;101644.66;5004436;28;20044;-67
2021/09/28 11:00:28;;;;;;;0.30;0.13;;;;;;;21.24;68.81;101649.44;5008862;28;20152;-67
2021/09/28 11:02:58;;;;;;;1.33;0.20;;;;;;;21.12;69.64;101641.69;5009250;28;20033;-67
2021/09/28 11:05:38;;;;;;;2.75;0.30;;;;;;;20.77;74.05;101639.16;5000623;28;20038;-67
2021/09/28 11:08:14;;;;;;;1.02;0.30;;;;;;;20.88;73.12;101640.66;5000267;28;20034;-67
2021/09/28 11:10:40;;;;;;;2.33;0.30;;;;;;;20.80;73.20;101638.34;4997775;28;20392;-66
2021/09/28 11:13:10;;;;;;;1.02;0.30;;;;;;;20.75;76.39;101631.31;4990955;28;20123;-66
2021/09/28 11:15:35;;;;;;;0.40;0.30;;;;;;;20.79;76.14;101629.34;4998764;28;20037;-67
2021/09/28 11:18:08;;;;;;;0.65;0.30;;;;;;;20.88;72.65;101624.22;4994286;28;20698;-67
2021/09/28 11:20:35;;;;;;;0.40;0.20;;;;;;;21.00;69.38;101625.72;4987728;28;21225;-67
2021/09/28 11:23:09;;;;;;;2.70;0.28;;;;;;;21.04;69.47;101627.25;5005892;28;20029;-66
2021/09/28 11:25:36;;;;;;;1.20;0.30;;;;;;;21.07;68.73;101629.22;5003696;28;20036;-66